createdAt,value
2018-10-19T00:00:14.140Z,59.40
2018-10-19T00:02:42.009Z,59.60
2018-10-19T00:05:10.064Z,60.00
2018-10-19T00:07:37.619Z,59.80
2018-10-19T00:10:05.836Z,59.20
2018-10-19T00:12:33.514Z,58.70
2018-10-19T00:15:01.175Z,59.20
2018-10-19T00:17:28.803Z,58.80
2018-10-19T00:19:56.467Z,58.80
2018-10-19T00:22:24.252Z,59.00
2018-10-19T00:24:51.883Z,59.40
2018-10-19T00:27:19.516Z,59.90
2018-10-19T00:29:47.187Z,60.30
2018-10-19T00:32:14.766Z,60.40
2018-10-19T00:34:42.401Z,60.60
2018-10-19T00:37:09.981Z,61.40
2018-10-19T00:39:37.523Z,60.30
2018-10-19T00:42:05.481Z,59.60
2018-10-19T00:44:33.096Z,59.40
2018-10-19T00:47:00.733Z,59.50
2018-10-19T00:49:28.252Z,59.50
2018-10-19T00:51:55.885Z,61.00
2018-10-19T00:54:23.482Z,62.70
2018-10-19T00:56:51.076Z,62.80
2018-10-19T00:59:18.824Z,62.30
2018-10-19T01:01:46.467Z,61.50
2018-10-19T01:04:14.073Z,60.60
2018-10-19T01:06:41.744Z,61.00
2018-10-19T01:09:09.868Z,61.70
2018-10-19T01:11:37.495Z,61.10
2018-10-19T01:14:05.345Z,61.40
2018-10-19T01:16:32.992Z,61.50
2018-10-19T01:19:00.641Z,61.70
2018-10-19T01:21:28.265Z,61.70
2018-10-19T01:23:55.876Z,61.10
2018-10-19T01:26:23.536Z,60.90
2018-10-19T01:28:51.219Z,61.30
2018-10-19T01:31:18.834Z,61.20
2018-10-19T01:33:46.751Z,61.50
2018-10-19T01:36:14.430Z,60.90
2018-10-19T01:38:42.106Z,61.60
2018-10-19T01:41:09.862Z,61.50
2018-10-19T01:43:37.396Z,62.10
2018-10-19T01:46:05.128Z,62.80
2018-10-19T01:48:32.762Z,61.60
2018-10-19T01:51:00.676Z,61.50
2018-10-19T01:53:28.280Z,60.80
2018-10-19T01:55:55.902Z,61.10
2018-10-19T01:58:23.526Z,61.30
2018-10-19T02:00:51.443Z,61.30
2018-10-19T02:03:19.073Z,61.90
2018-10-19T02:05:46.665Z,61.30
2018-10-19T02:08:14.564Z,61.10
2018-10-19T02:10:42.186Z,60.90
2018-10-19T02:13:10.348Z,61.80
2018-10-19T02:15:38.447Z,61.70
2018-10-19T02:18:06.261Z,62.00
2018-10-19T02:20:33.929Z,62.90
2018-10-19T02:23:01.622Z,61.80
2018-10-19T02:25:29.195Z,61.80
2018-10-19T02:27:56.917Z,61.70
2018-10-19T02:30:24.535Z,61.90
2018-10-19T02:32:52.170Z,61.50
2018-10-19T02:35:19.749Z,60.70
2018-10-19T02:37:47.357Z,61.70
2018-10-19T02:40:15.008Z,60.80
2018-10-19T02:42:42.653Z,60.60
2018-10-19T02:45:10.894Z,61.60
2018-10-19T02:47:38.815Z,61.40
2018-10-19T02:50:06.848Z,62.30
2018-10-19T02:52:34.538Z,62.20
2018-10-19T02:55:02.501Z,62.50
2018-10-19T02:57:30.489Z,62.20
2018-10-19T02:59:58.046Z,62.10
2018-10-19T03:02:25.693Z,62.20
2018-10-19T03:04:53.336Z,62.40
2018-10-19T03:07:21.249Z,63.00
2018-10-19T03:09:48.813Z,63.30
2018-10-19T03:12:16.467Z,62.40
2018-10-19T03:14:44.061Z,61.90
2018-10-19T03:17:11.791Z,62.40
2018-10-19T03:19:39.334Z,61.80
2018-10-19T03:22:07.026Z,62.00
2018-10-19T03:24:34.668Z,62.40
2018-10-19T03:27:02.309Z,62.50
2018-10-19T03:29:29.977Z,63.40
2018-10-19T03:31:57.551Z,63.00
2018-10-19T03:34:25.250Z,62.60
2018-10-19T03:36:52.840Z,62.00
2018-10-19T03:39:20.455Z,61.60
2018-10-19T03:41:48.062Z,62.50
2018-10-19T03:44:15.728Z,62.50
2018-10-19T03:46:43.356Z,62.50
2018-10-19T03:49:11.085Z,63.20
2018-10-19T03:51:38.641Z,64.00
2018-10-19T03:54:06.368Z,64.20
2018-10-19T03:56:33.980Z,64.70
2018-10-19T03:59:01.646Z,64.40
2018-10-19T04:01:29.231Z,63.40
2018-10-19T04:03:56.908Z,63.50
2018-10-19T04:06:24.636Z,63.50
2018-10-19T04:08:52.307Z,62.30
2018-10-19T04:11:20.069Z,63.20
2018-10-19T04:13:47.681Z,63.80
2018-10-19T04:16:15.323Z,63.90
2018-10-19T04:18:42.940Z,64.30
2018-10-19T04:21:10.643Z,64.60
2018-10-19T04:23:38.254Z,63.70
2018-10-19T04:26:05.971Z,63.40
2018-10-19T04:28:33.597Z,63.60
2018-10-19T04:31:01.242Z,63.60
2018-10-19T04:33:28.912Z,64.00
2018-10-19T04:35:56.512Z,63.00
2018-10-19T04:38:24.233Z,64.10
2018-10-19T04:40:51.834Z,63.50
2018-10-19T04:43:19.424Z,64.50
2018-10-19T04:45:47.029Z,64.80
2018-10-19T04:48:14.626Z,64.50
2018-10-19T04:50:42.336Z,64.50
2018-10-19T04:53:10.050Z,64.60
2018-10-19T04:55:37.646Z,64.10
2018-10-19T04:58:05.278Z,63.50
2018-10-19T05:00:32.962Z,63.30
2018-10-19T05:03:00.571Z,62.90
2018-10-19T05:05:28.299Z,62.60
2018-10-19T05:07:55.914Z,63.20
2018-10-19T05:10:23.558Z,63.30
2018-10-19T05:12:51.170Z,63.50
2018-10-19T05:15:19.071Z,63.70
2018-10-19T05:17:46.683Z,64.70
2018-10-19T05:20:14.359Z,64.70
2018-10-19T05:22:41.942Z,64.50
2018-10-19T05:25:10.860Z,64.20
2018-10-19T05:27:38.436Z,64.40
2018-10-19T05:30:08.020Z,64.40
2018-10-19T05:32:35.656Z,63.90
2018-10-19T05:35:03.473Z,63.50
2018-10-19T05:37:31.707Z,63.70
2018-10-19T05:40:00.115Z,63.80
2018-10-19T05:42:27.748Z,62.90
2018-10-19T05:44:55.369Z,63.30
2018-10-19T05:47:22.978Z,63.40
2018-10-19T05:49:50.623Z,64.00
2018-10-19T05:52:18.240Z,63.80
2018-10-19T05:54:45.902Z,63.80
2018-10-19T05:57:13.476Z,63.30
2018-10-19T05:59:41.092Z,64.10
2018-10-19T06:02:08.739Z,64.60
2018-10-19T06:04:36.305Z,64.20
2018-10-19T06:07:04.026Z,64.40
2018-10-19T06:09:31.631Z,63.60
2018-10-19T06:11:59.217Z,63.90
2018-10-19T06:14:26.894Z,63.90
2018-10-19T06:16:54.518Z,63.90
2018-10-19T06:19:22.516Z,64.00
2018-10-19T06:21:50.185Z,64.70
2018-10-19T06:24:17.815Z,65.10
2018-10-19T06:26:45.427Z,65.50
2018-10-19T06:29:13.133Z,65.30
2018-10-19T06:31:40.713Z,65.30
2018-10-19T06:34:08.440Z,65.10
2018-10-19T06:36:36.030Z,64.60
2018-10-19T06:39:05.297Z,65.50
2018-10-19T06:41:32.900Z,65.30
2018-10-19T06:44:00.574Z,65.30
2018-10-19T06:46:28.202Z,65.70
2018-10-19T06:48:55.884Z,65.90
2018-10-19T06:51:23.501Z,66.10
2018-10-19T06:53:51.121Z,66.30
2018-10-19T06:56:18.751Z,66.50
2018-10-19T06:58:46.362Z,67.00
2018-10-19T07:01:14.029Z,67.10
2018-10-19T07:03:41.884Z,67.90
2018-10-19T07:06:09.609Z,67.80
2018-10-19T07:08:37.176Z,68.20
2018-10-19T07:11:05.196Z,68.60
2018-10-19T07:13:32.819Z,68.60
2018-10-19T07:16:00.516Z,68.40
2018-10-19T07:18:28.129Z,68.60
2018-10-19T07:20:55.760Z,68.80
2018-10-19T07:23:23.389Z,69.20
2018-10-19T07:25:50.985Z,69.50
2018-10-19T07:28:18.598Z,69.60
2018-10-19T07:30:46.269Z,69.50
2018-10-19T07:33:13.876Z,69.80
2018-10-19T07:35:41.526Z,69.90
2018-10-19T07:38:09.169Z,70.20
2018-10-19T07:40:37.332Z,70.50
2018-10-19T07:43:05.361Z,70.50
2018-10-19T07:45:32.952Z,70.40
2018-10-19T07:48:00.745Z,70.60
2018-10-19T07:50:28.304Z,70.70
2018-10-19T07:52:55.944Z,71.60
2018-10-19T07:55:23.497Z,71.60
2018-10-19T07:57:51.172Z,71.40
2018-10-19T08:00:18.831Z,71.90
2018-10-19T08:02:46.449Z,72.50
2018-10-19T08:05:14.421Z,73.50
2018-10-19T08:07:42.112Z,73.60
2018-10-19T08:10:10.236Z,74.30
2018-10-19T08:12:37.888Z,75.10
2018-10-19T08:15:06.391Z,75.20
2018-10-19T08:17:34.024Z,76.20
2018-10-19T08:20:01.672Z,75.80
2018-10-19T08:22:29.255Z,76.10
2018-10-19T08:24:57.104Z,76.40
2018-10-19T08:27:24.798Z,77.20
2018-10-19T08:29:52.319Z,77.80
2018-10-19T08:32:19.937Z,77.60
2018-10-19T08:34:47.621Z,77.30
2018-10-19T08:37:15.292Z,77.80
2018-10-19T08:39:42.951Z,78.10
2018-10-19T08:42:10.571Z,77.20
2018-10-19T08:44:38.167Z,77.30
2018-10-19T08:47:05.828Z,76.30
2018-10-19T08:49:33.413Z,75.90
2018-10-19T08:52:01.109Z,76.00
2018-10-19T08:54:28.757Z,75.50
2018-10-19T08:56:56.388Z,75.40
2018-10-19T08:59:23.968Z,75.00
2018-10-19T09:01:51.580Z,74.70
2018-10-19T09:04:19.168Z,74.10
2018-10-19T09:06:47.691Z,73.40
2018-10-19T09:09:15.375Z,73.00
2018-10-19T09:11:42.950Z,71.90
2018-10-19T09:14:21.867Z,71.10
2018-10-19T09:16:49.541Z,71.00
2018-10-19T09:19:17.235Z,69.80
2018-10-19T09:21:44.839Z,69.30
2018-10-19T09:24:12.535Z,68.60
2018-10-19T09:26:41.171Z,68.10
2018-10-19T09:29:08.819Z,67.70
2018-10-19T09:31:36.449Z,67.10
2018-10-19T09:34:04.394Z,66.80
2018-10-19T09:36:32.239Z,66.70
2018-10-19T09:38:59.662Z,65.60
2018-10-19T09:41:27.332Z,65.20
2018-10-19T09:43:55.033Z,65.00
2018-10-19T09:46:22.672Z,64.60
2018-10-19T09:48:50.315Z,63.90
2018-10-19T09:51:18.053Z,63.10
2018-10-19T09:53:45.687Z,62.70
2018-10-19T09:56:13.422Z,62.30
2018-10-19T09:58:40.947Z,61.80
2018-10-19T10:01:14.090Z,61.30
2018-10-19T10:03:41.679Z,60.90
2018-10-19T10:06:09.299Z,60.80
2018-10-19T10:08:36.898Z,60.40
2018-10-19T10:11:04.984Z,59.40
2018-10-19T10:13:32.564Z,59.30
2018-10-19T10:16:00.221Z,58.80
2018-10-19T10:18:27.959Z,58.70
2018-10-19T10:20:55.564Z,58.90
2018-10-19T10:23:23.631Z,58.30
2018-10-19T10:25:51.279Z,57.50
2018-10-19T10:28:18.910Z,57.30
2018-10-19T10:30:46.545Z,57.30
2018-10-19T10:33:14.537Z,57.30
2018-10-19T10:35:42.108Z,57.10
2018-10-19T10:38:09.749Z,56.70
2018-10-19T10:40:37.365Z,56.30
2018-10-19T10:43:05.484Z,56.10
2018-10-19T10:45:33.120Z,56.00
2018-10-19T10:48:01.189Z,55.70
2018-10-19T10:50:28.835Z,55.50
2018-10-19T10:52:56.499Z,55.40
2018-10-19T10:55:24.165Z,55.20
2018-10-19T10:57:51.814Z,55.30
2018-10-19T11:00:19.439Z,55.20
2018-10-19T11:02:47.039Z,55.10
2018-10-19T11:05:14.717Z,55.10
2018-10-19T11:07:42.393Z,55.10
2018-10-19T11:10:10.099Z,55.30
2018-10-19T11:12:37.715Z,55.40
2018-10-19T11:15:06.738Z,54.80
2018-10-19T11:17:34.448Z,55.00
2018-10-19T11:20:02.154Z,54.60
2018-10-19T11:22:29.748Z,54.20
2018-10-19T11:24:57.442Z,53.80
2018-10-19T11:27:25.490Z,54.10
2018-10-19T11:29:53.130Z,54.30
2018-10-19T11:32:20.749Z,54.00
2018-10-19T11:34:48.407Z,54.00
2018-10-19T11:37:16.146Z,53.90
2018-10-19T11:39:55.462Z,53.60
2018-10-19T11:42:23.046Z,54.00
2018-10-19T11:44:50.714Z,53.40
2018-10-19T11:47:18.340Z,53.70
2018-10-19T11:49:46.047Z,53.40
2018-10-19T11:52:13.813Z,53.60
2018-10-19T11:54:41.317Z,53.20
2018-10-19T11:57:08.961Z,53.80
2018-10-19T11:59:36.628Z,53.70
2018-10-19T12:02:04.477Z,53.00
2018-10-19T12:04:32.140Z,53.00
2018-10-19T12:06:59.791Z,53.10
2018-10-19T12:09:27.383Z,53.00
2018-10-19T12:11:55.033Z,53.40
2018-10-19T12:14:22.732Z,53.00
2018-10-19T12:16:50.539Z,53.40
2018-10-19T12:19:18.028Z,53.40
2018-10-19T12:21:45.763Z,53.40
2018-10-19T12:24:13.347Z,54.00
2018-10-19T12:26:40.986Z,53.50
2018-10-19T12:29:08.589Z,53.30
2018-10-19T12:31:36.216Z,53.20
2018-10-19T12:34:04.062Z,53.20
2018-10-19T12:36:31.731Z,52.90
2018-10-19T12:38:59.397Z,52.90
2018-10-19T12:41:27.047Z,52.80
2018-10-19T12:43:54.638Z,52.70
2018-10-19T12:46:39.958Z,52.60
2018-10-19T12:49:07.995Z,52.80
2018-10-19T12:51:35.855Z,52.80
2018-10-19T12:54:03.648Z,52.60
2018-10-19T12:56:31.280Z,52.70
2018-10-19T12:58:58.891Z,52.90
2018-10-19T13:01:27.631Z,53.00
2018-10-19T13:03:55.321Z,53.00
2018-10-19T13:06:23.225Z,52.90
2018-10-19T13:08:51.301Z,52.80
2018-10-19T13:11:19.172Z,53.10
2018-10-19T13:13:46.786Z,53.10
2018-10-19T13:16:14.461Z,52.80
2018-10-19T13:18:42.073Z,52.70
2018-10-19T13:21:09.812Z,52.70
2018-10-19T13:23:37.410Z,52.80
2018-10-19T13:26:05.160Z,52.60
2018-10-19T13:28:32.795Z,52.70
2018-10-19T13:31:00.491Z,52.90
2018-10-19T13:33:28.155Z,52.70
2018-10-19T13:35:55.840Z,52.60
2018-10-19T13:38:23.748Z,52.90
2018-10-19T13:40:52.244Z,52.70
2018-10-19T13:43:19.855Z,52.70
2018-10-19T13:45:47.545Z,52.80
2018-10-19T13:48:15.181Z,52.60
2018-10-19T13:50:42.836Z,52.50
2018-10-19T13:53:10.464Z,52.60
2018-10-19T13:55:38.024Z,52.50
2018-10-19T13:58:05.708Z,52.30
2018-10-19T14:00:33.899Z,52.50
2018-10-19T14:03:02.463Z,52.70
2018-10-19T14:05:30.209Z,52.50
2018-10-19T14:07:57.753Z,52.60
2018-10-19T14:10:25.656Z,52.60
2018-10-19T14:12:53.253Z,52.40
2018-10-19T14:15:20.824Z,52.50
2018-10-19T14:17:48.432Z,52.50
2018-10-19T14:20:16.107Z,52.20
2018-10-19T14:22:43.714Z,52.40
2018-10-19T14:25:12.380Z,52.50
2018-10-19T14:27:41.172Z,52.70
2018-10-19T14:30:11.059Z,52.70
2018-10-19T14:32:39.496Z,52.60
2018-10-19T14:35:07.552Z,52.40
2018-10-19T14:37:36.270Z,52.50
2018-10-19T14:40:04.900Z,52.60
2018-10-19T14:42:32.486Z,52.50
2018-10-19T14:45:00.095Z,52.60
2018-10-19T14:47:28.095Z,52.60
2018-10-19T14:49:55.680Z,52.90
2018-10-19T14:52:23.293Z,52.90
2018-10-19T14:54:51.204Z,52.70
2018-10-19T14:57:18.870Z,52.70
2018-10-19T14:59:46.545Z,52.70
2018-10-19T15:02:14.228Z,52.90
2018-10-19T15:04:41.887Z,53.00
2018-10-19T15:07:09.484Z,53.00
2018-10-19T15:09:37.175Z,53.30
2018-10-19T15:12:05.053Z,53.30
2018-10-19T15:14:32.647Z,53.30
2018-10-19T15:17:00.504Z,53.20
2018-10-19T15:19:28.128Z,53.20
2018-10-19T15:21:55.780Z,53.40
2018-10-19T15:24:23.384Z,53.40
2018-10-19T15:26:51.043Z,53.30
2018-10-19T15:29:18.648Z,53.40
2018-10-19T15:31:46.691Z,53.30
2018-10-19T15:34:14.286Z,53.50
2018-10-19T15:36:41.944Z,53.60
2018-10-19T15:39:10.594Z,53.70
2018-10-19T15:41:38.224Z,53.80
2018-10-19T15:44:05.920Z,53.80
2018-10-19T15:46:33.676Z,53.70
2018-10-19T15:49:01.316Z,53.90
2018-10-19T15:51:28.977Z,53.80
2018-10-19T15:53:56.622Z,53.80
2018-10-19T15:56:24.307Z,53.80
2018-10-19T15:58:51.929Z,53.80
2018-10-19T16:01:19.627Z,54.00
2018-10-19T16:03:47.285Z,53.90
2018-10-19T16:06:14.915Z,54.00
2018-10-19T16:08:42.559Z,53.80
2018-10-19T16:11:10.962Z,53.80
2018-10-19T16:13:38.578Z,53.40
2018-10-19T16:16:07.147Z,53.50
2018-10-19T16:18:34.771Z,53.50
2018-10-19T16:21:02.569Z,53.50
2018-10-19T16:23:30.232Z,53.50
2018-10-19T16:25:57.887Z,53.70
2018-10-19T16:28:25.971Z,53.70
2018-10-19T16:30:53.712Z,54.00
2018-10-19T16:33:21.348Z,54.10
2018-10-19T16:35:49.003Z,54.10
2018-10-19T16:38:16.655Z,54.20
2018-10-19T16:40:44.283Z,54.20
2018-10-19T16:43:11.907Z,54.10
2018-10-19T16:45:39.537Z,54.30
2018-10-19T16:48:07.194Z,54.20
2018-10-19T16:50:34.777Z,54.20
2018-10-19T16:53:02.554Z,54.40
2018-10-19T16:55:30.129Z,54.70
2018-10-19T16:57:57.823Z,54.60
2018-10-19T17:00:25.605Z,54.90
2018-10-19T17:02:53.680Z,54.50
2018-10-19T17:05:21.352Z,54.10
2018-10-19T17:07:48.970Z,54.20
2018-10-19T17:10:16.600Z,54.10
2018-10-19T17:12:44.449Z,54.70
2018-10-19T17:15:12.104Z,54.60
2018-10-19T17:17:39.682Z,54.60
2018-10-19T17:20:07.688Z,54.60
2018-10-19T17:22:35.656Z,54.70
2018-10-19T17:25:03.533Z,55.60
2018-10-19T17:27:31.190Z,56.00
2018-10-19T17:29:58.847Z,56.00
2018-10-19T17:32:26.484Z,56.00
2018-10-19T17:34:54.180Z,56.00
2018-10-19T17:37:21.767Z,56.50
2018-10-19T17:39:50.065Z,56.80
2018-10-19T17:42:17.717Z,56.40
2018-10-19T17:44:45.352Z,56.60
2018-10-19T17:47:13.049Z,56.50
2018-10-19T17:49:40.596Z,56.60
2018-10-19T17:52:08.333Z,56.80
2018-10-19T17:54:35.977Z,57.00
2018-10-19T17:57:03.655Z,57.10
2018-10-19T17:59:31.239Z,56.80
2018-10-19T18:01:58.837Z,57.10
2018-10-19T18:04:26.921Z,57.20
2018-10-19T18:06:54.481Z,57.40
2018-10-19T18:09:22.375Z,57.70
2018-10-19T18:11:49.993Z,56.90
2018-10-19T18:14:17.626Z,57.50
2018-10-19T18:16:45.652Z,57.10
2018-10-19T18:19:13.312Z,57.50
2018-10-19T18:21:41.125Z,58.20
2018-10-19T18:24:08.659Z,58.60
2018-10-19T18:26:36.256Z,58.10
2018-10-19T18:29:03.973Z,58.70
2018-10-19T18:31:31.570Z,58.50
2018-10-19T18:33:59.159Z,58.50
2018-10-19T18:36:26.889Z,58.50
2018-10-19T18:38:54.725Z,58.70
2018-10-19T18:41:22.333Z,58.40
2018-10-19T18:43:49.919Z,58.90
2018-10-19T18:46:17.544Z,59.30
2018-10-19T18:48:45.185Z,58.20
2018-10-19T18:51:12.860Z,58.10
2018-10-19T18:53:40.482Z,58.50
2018-10-19T18:56:08.206Z,58.20
2018-10-19T18:58:36.360Z,57.30
2018-10-19T19:01:04.002Z,57.70
2018-10-19T19:03:31.613Z,57.70
2018-10-19T19:05:59.230Z,58.50
2018-10-19T19:08:26.832Z,58.40
2018-10-19T19:10:54.490Z,58.60
2018-10-19T19:13:28.695Z,59.00
2018-10-19T19:15:57.492Z,59.30
2018-10-19T19:18:25.164Z,58.90
2018-10-19T19:20:52.801Z,58.90
2018-10-19T19:23:20.494Z,59.10
2018-10-19T19:25:53.827Z,59.30
2018-10-19T19:28:21.465Z,59.10
2018-10-19T19:30:49.126Z,58.60
2018-10-19T19:33:22.448Z,57.70
2018-10-19T19:35:50.236Z,58.50
2018-10-19T19:38:17.881Z,58.70
2018-10-19T19:40:51.196Z,58.60
2018-10-19T19:43:18.843Z,58.90
2018-10-19T19:45:46.464Z,59.10
2018-10-19T19:50:21.779Z,58.80
2018-10-19T19:52:49.605Z,59.00
2018-10-19T19:55:17.252Z,58.70
2018-10-19T19:57:44.840Z,59.10
2018-10-19T20:00:12.453Z,59.40
2018-10-19T20:02:40.081Z,59.70
2018-10-19T20:05:07.789Z,59.80
2018-10-19T20:07:35.638Z,59.90
2018-10-19T20:10:03.469Z,59.30
2018-10-19T20:12:31.137Z,58.70
2018-10-19T20:14:58.760Z,58.90
2018-10-19T20:17:27.508Z,59.70
2018-10-19T20:19:55.162Z,59.90
2018-10-19T20:22:22.883Z,59.50
2018-10-19T20:24:50.513Z,58.70
2018-10-19T20:27:18.166Z,59.30
2018-10-19T20:29:45.754Z,59.10
2018-10-19T20:32:13.374Z,59.60
2018-10-19T20:34:41.001Z,60.10
2018-10-19T20:37:08.680Z,60.90
2018-10-19T20:39:36.286Z,60.20
2018-10-19T20:42:04.133Z,60.50
2018-10-19T20:44:31.753Z,61.10
2018-10-19T20:46:59.455Z,59.30
2018-10-19T20:49:27.156Z,59.20
2018-10-19T20:51:54.822Z,59.40
2018-10-19T20:54:22.436Z,59.80
2018-10-19T20:56:50.105Z,60.20
2018-10-19T20:59:17.755Z,60.20
2018-10-19T21:01:45.461Z,60.30
2018-10-19T21:04:13.124Z,60.20
2018-10-19T21:06:40.737Z,59.50
2018-10-19T21:09:09.415Z,59.90
2018-10-19T21:11:37.796Z,60.00
2018-10-19T21:14:05.778Z,60.20
2018-10-19T21:16:33.391Z,60.30
2018-10-19T21:19:01.105Z,60.90
2018-10-19T21:21:28.832Z,61.50
2018-10-19T21:23:56.403Z,62.10
2018-10-19T21:26:24.228Z,61.80
2018-10-19T21:28:52.049Z,62.30
2018-10-19T21:31:19.631Z,62.00
2018-10-19T21:33:47.440Z,60.90
2018-10-19T21:36:15.014Z,61.00
2018-10-19T21:38:42.597Z,61.90
2018-10-19T21:41:10.371Z,62.20
2018-10-19T21:43:37.899Z,61.20
2018-10-19T21:46:05.750Z,61.30
2018-10-19T21:48:33.374Z,62.00
2018-10-19T21:51:01.640Z,62.80
2018-10-19T21:53:29.409Z,61.70
2018-10-19T21:55:57.028Z,61.20
2018-10-19T21:58:24.634Z,61.00
2018-10-19T22:00:52.356Z,61.40
2018-10-19T22:03:19.949Z,61.60
2018-10-19T22:05:47.594Z,62.50
2018-10-19T22:08:15.186Z,62.70
2018-10-19T22:10:42.789Z,62.70
2018-10-19T22:13:10.721Z,62.50
2018-10-19T22:15:38.259Z,62.60
2018-10-19T22:18:05.878Z,62.90
2018-10-19T22:20:33.658Z,63.60
2018-10-19T22:23:01.324Z,63.70
2018-10-19T22:25:28.928Z,63.70
2018-10-19T22:27:56.556Z,63.40
2018-10-19T22:30:24.884Z,61.90
2018-10-19T22:32:52.537Z,62.50
2018-10-19T22:35:20.191Z,62.30
2018-10-19T22:37:48.595Z,62.80
2018-10-19T22:40:16.239Z,62.40
2018-10-19T22:42:43.856Z,63.10
2018-10-19T22:45:11.406Z,63.60
2018-10-19T22:47:39.025Z,62.50
2018-10-19T22:50:06.708Z,62.70
2018-10-19T22:52:34.304Z,62.70
2018-10-19T22:55:02.037Z,63.00
2018-10-19T22:57:29.677Z,61.90
2018-10-19T22:59:57.309Z,61.10
2018-10-19T23:02:24.919Z,61.20
2018-10-19T23:04:52.653Z,62.00
2018-10-19T23:07:20.598Z,62.40
2018-10-19T23:09:48.269Z,62.20
2018-10-19T23:12:15.856Z,61.80
2018-10-19T23:14:43.500Z,62.00
2018-10-19T23:17:11.335Z,62.20
2018-10-19T23:19:38.898Z,62.00
2018-10-19T23:22:06.522Z,62.40
2018-10-19T23:24:34.189Z,63.00
2018-10-19T23:27:01.818Z,63.90
2018-10-19T23:29:29.760Z,64.30
2018-10-19T23:31:57.354Z,65.00
2018-10-19T23:34:25.029Z,66.10
2018-10-19T23:36:52.663Z,64.70
2018-10-19T23:39:20.315Z,63.20
2018-10-19T23:41:48.040Z,62.90
2018-10-19T23:44:15.716Z,63.10
2018-10-19T23:46:43.334Z,62.80
2018-10-19T23:49:11.005Z,62.30
2018-10-19T23:51:38.634Z,62.20
2018-10-19T23:54:06.293Z,62.60
2018-10-19T23:56:33.879Z,63.20
2018-10-19T23:59:01.553Z,63.00
